createdAt,value
2022-09-09T00:00:27.560Z,0.00
2022-09-09T00:01:27.748Z,0.00
2022-09-09T00:02:28.013Z,0.00
2022-09-09T00:03:28.226Z,0.00
2022-09-09T00:04:28.259Z,0.00
2022-09-09T00:05:28.444Z,0.00
2022-09-09T00:06:28.619Z,0.00
2022-09-09T00:07:28.812Z,0.00
2022-09-09T00:08:29.042Z,0.00
2022-09-09T00:09:29.229Z,0.00
2022-09-09T00:10:29.426Z,0.00
2022-09-09T00:11:31.517Z,0.00
2022-09-09T00:12:29.817Z,0.00
2022-09-09T00:13:30.040Z,0.00
2022-09-09T00:14:30.216Z,0.00
2022-09-09T00:15:30.446Z,0.00
2022-09-09T00:16:30.516Z,0.00
2022-09-09T00:17:30.685Z,0.00
2022-09-09T00:18:30.890Z,0.00
2022-09-09T00:19:31.069Z,0.00
2022-09-09T00:20:31.248Z,0.00
2022-09-09T00:21:31.424Z,0.00
2022-09-09T00:22:31.596Z,0.00
2022-09-09T00:23:31.787Z,0.00
2022-09-09T00:24:31.949Z,0.00
2022-09-09T00:25:32.126Z,0.00
2022-09-09T00:26:32.295Z,0.00
2022-09-09T00:27:32.475Z,0.00
2022-09-09T00:28:32.770Z,0.00
2022-09-09T00:29:32.877Z,0.00
2022-09-09T00:30:33.127Z,0.00
2022-09-09T00:31:33.179Z,0.00
2022-09-09T00:32:33.365Z,0.00
2022-09-09T00:33:33.574Z,0.00
2022-09-09T00:34:33.763Z,0.00
2022-09-09T00:35:33.934Z,0.00
2022-09-09T00:36:34.114Z,0.00
2022-09-09T00:37:34.292Z,0.00
2022-09-09T00:38:34.665Z,0.00
2022-09-09T00:39:34.644Z,0.00
2022-09-09T00:40:34.794Z,0.00
2022-09-09T00:41:35.002Z,0.00
2022-09-09T00:42:35.175Z,0.00
2022-09-09T00:43:35.362Z,0.00
2022-09-09T00:44:35.541Z,0.00
2022-09-09T00:45:35.741Z,0.00
2022-09-09T00:46:36.029Z,0.00
2022-09-09T00:47:36.129Z,0.00
2022-09-09T00:48:36.434Z,0.00
2022-09-09T00:49:36.509Z,0.00
2022-09-09T00:50:36.675Z,0.00
2022-09-09T00:51:36.859Z,0.00
2022-09-09T00:52:37.035Z,0.00
2022-09-09T00:53:37.221Z,0.00
2022-09-09T00:54:37.416Z,0.00
2022-09-09T00:55:37.589Z,0.00
2022-09-09T00:56:37.763Z,0.00
2022-09-09T00:57:37.939Z,0.00
2022-09-09T00:58:38.121Z,0.00
2022-09-09T00:59:38.309Z,0.00
2022-09-09T01:00:38.484Z,0.00
2022-09-09T01:01:38.702Z,0.00
2022-09-09T01:02:38.991Z,0.00
2022-09-09T01:03:39.094Z,0.00
2022-09-09T01:04:39.279Z,0.00
2022-09-09T01:05:39.453Z,0.00
2022-09-09T01:06:39.650Z,0.00
2022-09-09T01:07:39.836Z,0.00
2022-09-09T01:08:40.023Z,0.00
2022-09-09T01:09:40.208Z,0.00
2022-09-09T01:10:40.415Z,0.00
2022-09-09T01:11:40.615Z,0.00
2022-09-09T01:12:40.768Z,0.00
2022-09-09T01:13:40.977Z,0.00
2022-09-09T01:14:41.171Z,0.00
2022-09-09T01:15:41.368Z,0.00
2022-09-09T01:16:41.586Z,0.00
2022-09-09T01:17:41.767Z,0.00
2022-09-09T01:18:41.962Z,0.00
2022-09-09T01:19:42.148Z,0.00
2022-09-09T01:20:42.326Z,0.00
2022-09-09T01:21:42.527Z,0.00
2022-09-09T01:22:42.708Z,0.00
2022-09-09T01:23:42.905Z,0.00
2022-09-09T01:24:43.078Z,0.00
2022-09-09T01:25:43.266Z,0.00
2022-09-09T01:26:43.465Z,0.00
2022-09-09T01:27:43.636Z,0.00
2022-09-09T01:28:43.819Z,0.00
2022-09-09T01:29:44.016Z,0.00
2022-09-09T01:30:44.252Z,0.00
2022-09-09T01:31:44.361Z,0.00
2022-09-09T01:32:44.544Z,0.00
2022-09-09T01:33:44.745Z,0.00
2022-09-09T01:34:44.913Z,0.00
2022-09-09T01:35:45.102Z,0.00
2022-09-09T01:36:45.307Z,0.00
2022-09-09T01:37:45.492Z,0.00
2022-09-09T01:38:45.694Z,0.00
2022-09-09T01:39:45.913Z,0.00
2022-09-09T01:40:46.073Z,0.00
2022-09-09T01:41:46.282Z,0.00
2022-09-09T01:42:46.474Z,0.00
2022-09-09T01:43:46.653Z,0.00
2022-09-09T01:44:46.839Z,0.00
2022-09-09T01:45:47.051Z,0.00
2022-09-09T01:46:47.242Z,0.00
2022-09-09T01:47:47.463Z,0.00
2022-09-09T01:48:47.646Z,0.00
2022-09-09T01:49:47.819Z,0.00
2022-09-09T01:50:48.006Z,0.00
2022-09-09T01:51:48.206Z,0.00
2022-09-09T01:52:48.389Z,0.00
2022-09-09T01:53:48.561Z,0.00
2022-09-09T01:54:48.762Z,0.00
2022-09-09T01:55:48.936Z,0.00
2022-09-09T01:56:49.140Z,0.00
2022-09-09T01:57:49.317Z,0.00
2022-09-09T01:58:49.513Z,0.00
2022-09-09T01:59:49.699Z,0.00
2022-09-09T02:00:49.973Z,0.00
2022-09-09T02:01:50.035Z,0.00
2022-09-09T02:02:50.273Z,0.00
2022-09-09T02:03:50.359Z,0.00
2022-09-09T02:04:50.555Z,0.00
2022-09-09T02:05:50.722Z,0.00
2022-09-09T02:06:50.934Z,0.00
2022-09-09T02:07:51.104Z,0.00
2022-09-09T02:08:51.292Z,0.00
2022-09-09T02:09:51.465Z,0.00
2022-09-09T02:10:51.636Z,0.00
2022-09-09T02:11:51.833Z,0.00
2022-09-09T02:12:52.020Z,0.00
2022-09-09T02:13:52.223Z,0.00
2022-09-09T02:14:52.391Z,0.00
2022-09-09T02:15:52.579Z,0.00
2022-09-09T02:16:52.810Z,0.00
2022-09-09T02:17:52.971Z,0.00
2022-09-09T02:18:53.175Z,0.00
2022-09-09T02:19:53.344Z,0.00
2022-09-09T02:20:53.537Z,0.00
2022-09-09T02:21:53.741Z,0.00
2022-09-09T02:22:53.970Z,0.00
2022-09-09T02:23:54.143Z,0.00
2022-09-09T02:24:54.339Z,0.00
2022-09-09T02:25:54.521Z,0.00
2022-09-09T02:26:54.733Z,0.00
2022-09-09T02:27:54.908Z,0.00
2022-09-09T02:28:55.096Z,0.00
2022-09-09T02:29:55.279Z,0.00
2022-09-09T02:30:55.531Z,0.00
2022-09-09T02:31:55.603Z,0.00
2022-09-09T02:32:55.820Z,0.00
2022-09-09T02:33:55.999Z,0.00
2022-09-09T02:34:56.196Z,0.00
2022-09-09T02:35:56.376Z,0.00
2022-09-09T02:36:56.591Z,0.00
2022-09-09T02:37:56.788Z,0.00
2022-09-09T02:38:56.984Z,0.00
2022-09-09T02:39:57.237Z,0.00
2022-09-09T02:40:57.324Z,0.00
2022-09-09T02:41:57.534Z,0.00
2022-09-09T02:42:57.708Z,0.00
2022-09-09T02:43:57.909Z,0.00
2022-09-09T02:44:58.086Z,0.00
2022-09-09T02:45:58.343Z,0.00
2022-09-09T02:46:58.423Z,0.00
2022-09-09T02:47:58.600Z,0.00
2022-09-09T02:48:58.793Z,0.00
2022-09-09T02:49:58.965Z,0.00
2022-09-09T02:50:59.151Z,0.00
2022-09-09T02:51:59.351Z,0.00
2022-09-09T02:52:59.540Z,0.00
2022-09-09T02:53:59.721Z,0.00
2022-09-09T02:54:59.896Z,0.00
2022-09-09T02:56:00.075Z,0.00
2022-09-09T02:57:00.286Z,0.00
2022-09-09T02:58:00.461Z,0.00
2022-09-09T02:59:00.655Z,0.00
2022-09-09T03:00:00.829Z,0.00
2022-09-09T03:01:01.073Z,0.00
2022-09-09T03:02:01.301Z,0.00
2022-09-09T03:03:01.459Z,0.00
2022-09-09T03:04:01.658Z,0.00
2022-09-09T03:05:01.843Z,0.00
2022-09-09T03:06:02.040Z,0.00
2022-09-09T03:07:02.219Z,0.00
2022-09-09T03:08:02.416Z,0.00
2022-09-09T03:09:02.581Z,0.00
2022-09-09T03:10:02.750Z,0.00
2022-09-09T03:11:02.934Z,0.00
2022-09-09T03:12:03.120Z,0.00
2022-09-09T03:13:03.327Z,0.00
2022-09-09T03:14:03.493Z,0.00
2022-09-09T03:15:03.680Z,0.00
2022-09-09T03:16:03.854Z,0.00
2022-09-09T03:17:04.048Z,0.00
2022-09-09T03:18:04.226Z,0.00
2022-09-09T03:19:04.425Z,0.00
2022-09-09T03:20:04.605Z,0.00
2022-09-09T03:21:04.797Z,0.00
2022-09-09T03:22:04.987Z,0.00
2022-09-09T03:23:05.188Z,0.00
2022-09-09T03:24:05.362Z,0.00
2022-09-09T03:25:05.541Z,0.00
2022-09-09T03:26:05.716Z,0.00
2022-09-09T03:27:05.907Z,0.00
2022-09-09T03:28:06.077Z,0.00
2022-09-09T03:29:06.245Z,0.00
2022-09-09T03:30:06.418Z,0.00
2022-09-09T03:31:06.617Z,0.00
2022-09-09T03:32:06.865Z,0.00
2022-09-09T03:33:06.923Z,0.00
2022-09-09T03:34:07.101Z,0.00
2022-09-09T03:35:07.292Z,0.00
2022-09-09T03:36:07.454Z,0.00
2022-09-09T03:37:07.644Z,0.00
2022-09-09T03:38:07.858Z,0.00
2022-09-09T03:39:08.021Z,0.00
2022-09-09T03:40:08.298Z,0.00
2022-09-09T03:41:08.385Z,0.00
2022-09-09T03:42:08.578Z,0.00
2022-09-09T03:43:08.753Z,0.00
2022-09-09T03:44:08.929Z,0.00
2022-09-09T03:45:09.110Z,0.00
2022-09-09T03:46:09.340Z,0.00
2022-09-09T03:47:09.453Z,0.00
2022-09-09T03:48:09.634Z,0.00
2022-09-09T03:49:09.819Z,0.00
2022-09-09T03:50:10.014Z,0.00
2022-09-09T03:51:10.196Z,0.00
2022-09-09T03:52:10.402Z,0.00
2022-09-09T03:53:10.592Z,0.00
2022-09-09T03:54:10.793Z,0.00
2022-09-09T03:55:11.004Z,0.00
2022-09-09T03:56:11.208Z,0.00
2022-09-09T03:57:11.435Z,0.00
2022-09-09T03:58:11.628Z,0.00
2022-09-09T03:59:11.840Z,0.00
2022-09-09T04:00:12.041Z,0.00
2022-09-09T04:01:12.301Z,0.00
2022-09-09T04:02:12.494Z,0.00
2022-09-09T04:03:12.675Z,0.00
2022-09-09T04:04:12.788Z,0.00
2022-09-09T04:05:13.035Z,0.00
2022-09-09T04:06:13.162Z,0.00
2022-09-09T04:07:13.281Z,0.00
2022-09-09T04:08:13.525Z,0.00
2022-09-09T04:09:13.643Z,0.00
2022-09-09T04:10:13.871Z,0.00
2022-09-09T04:11:14.119Z,0.00
2022-09-09T04:12:14.359Z,0.00
2022-09-09T04:13:14.543Z,0.00
2022-09-09T04:14:14.731Z,0.00
2022-09-09T04:15:14.936Z,0.00
2022-09-09T04:16:15.158Z,0.00
2022-09-09T04:17:15.362Z,0.00
2022-09-09T04:18:19.825Z,0.00
2022-09-09T04:19:15.743Z,0.00
2022-09-09T04:20:15.927Z,0.00
2022-09-09T04:21:16.115Z,0.00
2022-09-09T04:22:16.326Z,5.62
2022-09-09T04:23:16.527Z,5.62
2022-09-09T04:24:16.709Z,5.62
2022-09-09T04:25:16.896Z,5.62
2022-09-09T04:26:17.073Z,5.62
2022-09-09T04:27:17.295Z,5.62
2022-09-09T04:28:17.480Z,5.62
2022-09-09T04:29:17.670Z,11.25
2022-09-09T04:30:17.906Z,11.25
2022-09-09T04:31:18.181Z,11.25
2022-09-09T04:32:18.272Z,11.25
2022-09-09T04:33:18.465Z,11.25
2022-09-09T04:34:18.645Z,11.25
2022-09-09T04:35:18.831Z,16.88
2022-09-09T04:36:19.005Z,16.88
2022-09-09T04:37:19.218Z,16.88
2022-09-09T04:38:19.405Z,22.50
2022-09-09T04:39:19.665Z,22.50
2022-09-09T04:40:19.745Z,22.50
2022-09-09T04:41:19.935Z,28.12
2022-09-09T04:42:20.152Z,28.12
2022-09-09T04:43:20.353Z,28.12
2022-09-09T04:44:20.564Z,33.75
2022-09-09T04:45:20.874Z,33.75
2022-09-09T04:46:20.965Z,33.75
2022-09-09T04:47:21.199Z,39.38
2022-09-09T04:48:21.414Z,39.38
2022-09-09T04:49:21.606Z,39.38
2022-09-09T04:50:21.793Z,45.00
2022-09-09T04:51:21.973Z,45.00
2022-09-09T04:52:22.192Z,50.62
2022-09-09T04:53:22.395Z,50.62
2022-09-09T04:54:22.583Z,50.62
2022-09-09T04:55:22.772Z,56.25
2022-09-09T04:56:22.944Z,56.25
2022-09-09T04:57:23.175Z,61.88
2022-09-09T04:58:23.383Z,61.88
2022-09-09T04:59:23.567Z,61.88
2022-09-09T05:00:23.755Z,67.50
2022-09-09T05:01:24.011Z,67.50
2022-09-09T05:02:26.631Z,73.12
2022-09-09T05:03:24.240Z,73.12
2022-09-09T05:04:24.420Z,73.12
2022-09-09T05:05:24.619Z,78.75
2022-09-09T05:06:24.797Z,78.75
2022-09-09T05:07:25.011Z,84.38
2022-09-09T05:08:25.180Z,84.38
2022-09-09T05:09:25.359Z,84.38
2022-09-09T05:10:25.572Z,84.38
2022-09-09T05:11:25.769Z,84.38
2022-09-09T05:12:25.960Z,84.38
2022-09-09T05:13:26.171Z,90.00
2022-09-09T05:14:26.411Z,90.00
2022-09-09T05:15:26.583Z,90.00
2022-09-09T05:16:26.800Z,90.00
2022-09-09T05:17:26.948Z,90.00
2022-09-09T05:18:27.686Z,95.62
2022-09-09T05:19:27.331Z,90.00
2022-09-09T05:20:27.497Z,90.00
2022-09-09T05:21:27.674Z,90.00
2022-09-09T05:22:27.920Z,90.00
2022-09-09T05:23:27.980Z,95.62
2022-09-09T05:24:35.204Z,95.62
2022-09-09T05:25:28.348Z,95.62
2022-09-09T05:26:28.560Z,101.25
2022-09-09T05:27:28.769Z,101.25
2022-09-09T05:28:28.983Z,106.88
2022-09-09T05:29:29.140Z,106.88
2022-09-09T05:30:29.311Z,106.88
2022-09-09T05:31:29.548Z,106.88
2022-09-09T05:32:29.648Z,106.88
2022-09-09T05:33:29.821Z,106.88
2022-09-09T05:34:29.986Z,106.88
2022-09-09T05:35:30.160Z,112.50
2022-09-09T05:36:30.341Z,118.12
2022-09-09T05:37:30.538Z,118.12
2022-09-09T05:38:30.701Z,123.75
2022-09-09T05:39:30.919Z,129.38
2022-09-09T05:40:31.062Z,135.00
2022-09-09T05:41:31.246Z,135.00
2022-09-09T05:42:31.429Z,135.00
2022-09-09T05:43:31.638Z,140.62
2022-09-09T05:44:31.811Z,140.62
2022-09-09T05:45:31.988Z,135.00
2022-09-09T05:46:32.176Z,135.00
2022-09-09T05:47:32.348Z,135.00
2022-09-09T05:48:32.551Z,140.62
2022-09-09T05:49:32.703Z,140.62
2022-09-09T05:50:32.866Z,140.62
2022-09-09T05:51:33.067Z,146.25
2022-09-09T05:52:33.268Z,146.25
2022-09-09T05:53:33.440Z,146.25
2022-09-09T05:54:33.596Z,151.88
2022-09-09T05:55:33.763Z,146.25
2022-09-09T05:56:33.959Z,151.88
2022-09-09T05:57:34.116Z,151.88
2022-09-09T05:58:34.350Z,151.88
2022-09-09T05:59:34.404Z,151.88
2022-09-09T06:00:34.578Z,151.88
2022-09-09T06:01:34.768Z,151.88
2022-09-09T06:02:35.014Z,146.25
2022-09-09T06:03:35.103Z,151.88
2022-09-09T06:04:35.269Z,151.88
2022-09-09T06:05:35.521Z,157.50
2022-09-09T06:06:35.556Z,163.12
2022-09-09T06:07:35.725Z,163.12
2022-09-09T06:08:35.995Z,163.12
2022-09-09T06:09:36.067Z,168.75
2022-09-09T06:10:36.225Z,168.75
2022-09-09T06:11:36.427Z,168.75
2022-09-09T06:12:36.629Z,174.38
2022-09-09T06:13:36.803Z,180.00
2022-09-09T06:14:36.965Z,185.62
2022-09-09T06:15:37.127Z,185.62
2022-09-09T06:16:37.302Z,191.25
2022-09-09T06:17:37.467Z,196.88
2022-09-09T06:18:37.772Z,202.50
2022-09-09T06:19:37.802Z,208.12
2022-09-09T06:20:37.973Z,213.75
2022-09-09T06:21:38.187Z,213.75
2022-09-09T06:22:38.353Z,219.38
2022-09-09T06:23:38.518Z,230.62
2022-09-09T06:24:38.680Z,236.25
2022-09-09T06:25:38.837Z,247.50
2022-09-09T06:26:39.003Z,258.75
2022-09-09T06:27:39.172Z,264.38
2022-09-09T06:28:39.351Z,270.00
2022-09-09T06:29:39.512Z,275.62
2022-09-09T06:30:39.674Z,275.62
2022-09-09T06:31:39.844Z,225.00
2022-09-09T06:32:40.020Z,219.38
2022-09-09T06:33:40.164Z,230.62
2022-09-09T06:34:40.331Z,236.25
2022-09-09T06:35:40.483Z,247.50
2022-09-09T06:36:40.634Z,253.12
2022-09-09T06:37:40.795Z,258.75
2022-09-09T06:38:40.951Z,258.75
2022-09-09T06:39:41.144Z,253.12
2022-09-09T06:40:41.312Z,253.12
2022-09-09T06:41:41.512Z,253.12
2022-09-09T06:42:41.660Z,258.75
2022-09-09T06:43:41.820Z,264.38
2022-09-09T06:44:41.990Z,253.12
2022-09-09T06:45:42.150Z,275.62
2022-09-09T06:46:42.367Z,275.62
2022-09-09T06:47:42.441Z,258.75
2022-09-09T06:48:42.608Z,219.38
2022-09-09T06:49:45.503Z,225.00
2022-09-09T06:50:43.878Z,253.12
2022-09-09T06:51:43.036Z,309.38
2022-09-09T06:52:43.208Z,309.38
2022-09-09T06:53:43.380Z,309.38
2022-09-09T06:54:43.535Z,315.00
2022-09-09T06:55:43.690Z,331.88
2022-09-09T06:56:43.857Z,405.00
2022-09-09T06:57:44.018Z,534.38
2022-09-09T06:58:44.164Z,517.50
2022-09-09T06:59:44.315Z,568.12
2022-09-09T07:00:44.497Z,517.50
2022-09-09T07:01:44.792Z,601.88
2022-09-09T07:02:44.781Z,466.88
2022-09-09T07:03:44.922Z,410.62
2022-09-09T07:04:45.078Z,416.25
2022-09-09T07:05:45.220Z,410.62
2022-09-09T07:06:45.357Z,388.12
2022-09-09T07:07:45.525Z,416.25
2022-09-09T07:08:55.764Z,444.38
2022-09-09T07:09:46.756Z,444.38
2022-09-09T07:10:45.891Z,466.88
2022-09-09T07:11:46.019Z,472.50
2022-09-09T07:12:46.178Z,483.75
2022-09-09T07:13:46.296Z,483.75
2022-09-09T07:14:46.428Z,500.62
2022-09-09T07:15:46.580Z,506.25
2022-09-09T07:16:46.719Z,551.25
2022-09-09T07:17:46.857Z,585.00
2022-09-09T07:18:46.986Z,798.75
2022-09-09T07:19:47.112Z,1276.88
2022-09-09T07:20:47.232Z,1575.00
2022-09-09T07:21:47.356Z,1428.75
2022-09-09T07:22:47.499Z,1535.62
2022-09-09T07:23:47.603Z,1417.50
2022-09-09T07:24:47.719Z,1305.00
2022-09-09T07:25:47.818Z,1400.62
2022-09-09T07:26:47.925Z,1192.50
2022-09-09T07:27:48.044Z,990.00
2022-09-09T07:28:48.131Z,1035.00
2022-09-09T07:29:48.218Z,1237.50
2022-09-09T07:30:49.261Z,1215.00
2022-09-09T07:31:48.392Z,1670.62
2022-09-09T07:32:48.495Z,1608.75
2022-09-09T07:33:48.587Z,1102.50
2022-09-09T07:34:48.719Z,1378.12
2022-09-09T07:35:48.828Z,1344.38
2022-09-09T07:36:48.917Z,2115.00
2022-09-09T07:37:51.007Z,2030.62
2022-09-09T07:38:49.085Z,2064.38
2022-09-09T07:39:49.245Z,2373.75
2022-09-09T07:40:49.318Z,2356.88
2022-09-09T07:41:49.404Z,1957.50
2022-09-09T07:42:49.495Z,2441.25
2022-09-09T07:43:49.585Z,2446.88
2022-09-09T07:44:49.672Z,2565.00
2022-09-09T07:45:49.767Z,2120.62
2022-09-09T07:46:49.885Z,1698.75
2022-09-09T07:47:49.885Z,2503.12
2022-09-09T07:48:49.957Z,956.25
2022-09-09T07:49:50.045Z,866.25
2022-09-09T07:50:50.115Z,1378.12
2022-09-09T07:51:50.189Z,787.50
2022-09-09T07:52:50.283Z,770.62
2022-09-09T07:53:50.358Z,742.50
2022-09-09T07:54:50.433Z,742.50
2022-09-09T07:55:50.509Z,720.00
2022-09-09T07:56:50.579Z,759.38
2022-09-09T07:57:50.667Z,714.38
2022-09-09T07:58:50.742Z,720.00
2022-09-09T07:59:50.833Z,720.00
2022-09-09T08:00:50.952Z,641.25
2022-09-09T08:01:51.082Z,708.75
2022-09-09T08:02:50.975Z,720.00
2022-09-09T08:03:54.677Z,708.75
2022-09-09T08:04:52.509Z,725.62
2022-09-09T08:05:51.176Z,753.75
2022-09-09T08:06:51.212Z,770.62
2022-09-09T08:07:51.177Z,646.88
2022-09-09T08:08:51.260Z,691.88
2022-09-09T08:09:51.367Z,562.50
2022-09-09T08:10:51.419Z,556.88
2022-09-09T08:11:52.045Z,624.38
2022-09-09T08:13:08.180Z,652.50
2022-09-09T08:13:54.826Z,596.25
2022-09-09T08:14:51.720Z,573.75
2022-09-09T08:15:51.823Z,545.62
2022-09-09T08:16:55.045Z,545.62
2022-09-09T08:17:52.012Z,540.00
2022-09-09T08:18:52.103Z,506.25
2022-09-09T08:19:52.177Z,478.12
2022-09-09T08:20:52.284Z,466.88
2022-09-09T08:21:52.362Z,410.62
2022-09-09T08:22:52.477Z,461.25
2022-09-09T08:23:57.664Z,500.62
2022-09-09T08:24:53.643Z,528.75
2022-09-09T08:25:52.740Z,568.12
2022-09-09T08:26:52.848Z,596.25
2022-09-09T08:27:52.972Z,551.25
2022-09-09T08:28:53.056Z,568.12
2022-09-09T08:29:53.150Z,613.12
2022-09-09T08:30:53.335Z,675.00
2022-09-09T08:31:53.311Z,703.12
2022-09-09T08:32:54.002Z,703.12
2022-09-09T08:33:53.559Z,675.00
2022-09-09T08:34:54.915Z,618.75
2022-09-09T08:35:53.701Z,613.12
2022-09-09T08:36:53.780Z,669.38
2022-09-09T08:37:53.903Z,686.25
2022-09-09T08:38:54.000Z,630.00
2022-09-09T08:39:54.435Z,641.25
2022-09-09T08:40:54.237Z,590.62
2022-09-09T08:41:54.329Z,568.12
2022-09-09T08:42:54.518Z,545.62
2022-09-09T08:43:55.606Z,545.62
2022-09-09T08:44:54.589Z,551.25
2022-09-09T08:45:54.678Z,568.12
2022-09-09T08:46:54.782Z,596.25
2022-09-09T08:47:55.494Z,613.12
2022-09-09T08:48:54.928Z,607.50
2022-09-09T08:49:55.030Z,624.38
2022-09-09T08:50:55.151Z,585.00
2022-09-09T08:51:55.246Z,556.88
2022-09-09T08:52:55.371Z,545.62
2022-09-09T08:53:59.680Z,540.00
2022-09-09T08:54:55.540Z,545.62
2022-09-09T08:55:55.632Z,551.25
2022-09-09T08:56:55.767Z,562.50
2022-09-09T08:57:55.952Z,579.38
2022-09-09T08:58:56.052Z,596.25
2022-09-09T08:59:56.050Z,630.00
2022-09-09T09:00:56.150Z,697.50
2022-09-09T09:01:56.367Z,742.50
2022-09-09T09:02:56.280Z,832.50
2022-09-09T09:03:56.445Z,1029.38
2022-09-09T09:04:56.557Z,1220.62
2022-09-09T09:05:56.539Z,1378.12
2022-09-09T09:06:56.650Z,1372.50
2022-09-09T09:07:56.788Z,1395.00
2022-09-09T09:08:56.804Z,1518.75
2022-09-09T09:09:56.897Z,1777.50
2022-09-09T09:10:56.980Z,2025.00
2022-09-09T09:11:57.088Z,2205.00
2022-09-09T09:12:57.179Z,1991.25
2022-09-09T09:13:57.298Z,1839.38
2022-09-09T09:14:57.394Z,1794.38
2022-09-09T09:15:57.537Z,1873.12
2022-09-09T09:16:57.490Z,1760.62
2022-09-09T09:17:57.601Z,1788.75
2022-09-09T09:18:57.690Z,2154.38
2022-09-09T09:19:58.011Z,2199.38
2022-09-09T09:20:57.870Z,2683.12
2022-09-09T09:21:58.076Z,3352.50
2022-09-09T09:22:58.041Z,3510.00
2022-09-09T09:23:58.199Z,3898.12
2022-09-09T09:24:58.172Z,3898.12
2022-09-09T09:25:58.131Z,3864.38
2022-09-09T09:26:58.217Z,3819.38
2022-09-09T09:27:58.332Z,3836.25
2022-09-09T09:28:58.279Z,3768.75
2022-09-09T09:30:22.468Z,3858.75
2022-09-09T09:30:59.458Z,3695.62
2022-09-09T09:31:58.427Z,3729.38
2022-09-09T09:32:58.481Z,3746.25
2022-09-09T09:33:58.670Z,3729.38
2022-09-09T09:34:58.501Z,3808.12
2022-09-09T09:35:58.549Z,3830.62
2022-09-09T09:36:58.582Z,4134.38
2022-09-09T09:40:58.665Z,4021.88
2022-09-09T09:41:58.666Z,4134.38
2022-09-09T09:42:58.702Z,4123.12
2022-09-09T09:43:58.712Z,4111.88
2022-09-09T09:44:58.757Z,4443.75
2022-09-09T09:46:59.808Z,4263.75
2022-09-09T09:48:03.033Z,4224.38
2022-09-09T09:48:59.690Z,4117.50
2022-09-09T09:49:58.712Z,4190.62
2022-09-09T09:50:58.730Z,4151.25
2022-09-09T09:51:58.734Z,4246.88
2022-09-09T09:52:58.743Z,4460.62
2022-09-09T09:53:58.776Z,4218.75
2022-09-09T09:54:58.799Z,4235.62
2022-09-09T09:55:58.825Z,4421.25
2022-09-09T09:56:58.828Z,4027.50
2022-09-09T09:57:58.871Z,3836.25
2022-09-09T09:58:58.824Z,4314.38
2022-09-09T09:59:58.857Z,4516.88
2022-09-09T10:00:58.732Z,4758.75
2022-09-09T10:01:58.793Z,2626.88
2022-09-09T10:02:58.644Z,4303.12
2022-09-09T10:03:58.638Z,3178.12
2022-09-09T10:04:58.718Z,3577.50
2022-09-09T10:05:58.608Z,4156.88
2022-09-09T10:06:58.608Z,2621.25
2022-09-09T10:07:58.616Z,1490.62
2022-09-09T10:08:58.627Z,1715.62
2022-09-09T10:09:58.659Z,2441.25
2022-09-09T10:10:58.672Z,3650.62
2022-09-09T10:11:58.719Z,2323.12
2022-09-09T10:12:58.634Z,3504.38
2022-09-09T10:13:58.655Z,4680.00
2022-09-09T10:14:59.870Z,4595.62
2022-09-09T10:16:02.121Z,4297.50
2022-09-09T10:16:59.645Z,4218.75
2022-09-09T10:17:58.684Z,4342.50
2022-09-09T10:18:58.570Z,3948.75
2022-09-09T10:19:58.567Z,3290.62
2022-09-09T10:20:58.618Z,2790.00
2022-09-09T10:21:58.525Z,2362.50
2022-09-09T10:22:58.533Z,2896.88
2022-09-09T10:23:58.539Z,3661.88
2022-09-09T10:24:58.547Z,2745.00
2022-09-09T10:25:58.586Z,2283.75
2022-09-09T10:26:58.595Z,1316.25
2022-09-09T10:28:02.699Z,1091.25
2022-09-09T10:28:59.566Z,1057.50
2022-09-09T10:29:58.586Z,1170.00
2022-09-09T10:30:58.624Z,1119.38
2022-09-09T10:31:58.643Z,1203.75
2022-09-09T10:32:58.754Z,1423.12
2022-09-09T10:33:58.667Z,2283.75
2022-09-09T10:34:58.698Z,1833.75
2022-09-09T10:35:58.732Z,3200.62
2022-09-09T10:36:58.787Z,3459.38
2022-09-09T10:37:58.826Z,2806.88
2022-09-09T10:38:58.862Z,3088.12
2022-09-09T10:39:59.007Z,2728.12
2022-09-09T10:40:58.877Z,2137.50
2022-09-09T10:41:58.909Z,1006.88
2022-09-09T10:42:58.938Z,1063.12
2022-09-09T10:44:00.590Z,1282.50
2022-09-09T10:44:58.969Z,1164.38
2022-09-09T10:45:59.075Z,1738.12
2022-09-09T10:47:01.779Z,1282.50
2022-09-09T10:47:59.208Z,1462.50
2022-09-09T10:48:59.097Z,2823.75
2022-09-09T10:49:59.157Z,3487.50
2022-09-09T10:51:03.944Z,4595.62
2022-09-09T10:52:00.231Z,4196.25
2022-09-09T10:52:59.275Z,4179.38
2022-09-09T10:53:59.330Z,3639.38
2022-09-09T10:54:59.391Z,4095.00
2022-09-09T10:55:59.450Z,4156.88
2022-09-09T10:56:59.463Z,4089.38
2022-09-09T10:57:59.499Z,4095.00
2022-09-09T10:58:59.522Z,4055.62
2022-09-09T10:59:59.560Z,4303.12
2022-09-09T11:00:59.609Z,4173.75
2022-09-09T11:01:59.640Z,3324.38
2022-09-09T11:02:59.669Z,4426.88
2022-09-09T11:03:59.689Z,4415.62
2022-09-09T11:04:59.700Z,3386.25
2022-09-09T11:05:59.782Z,495.00
2022-09-09T11:06:59.688Z,585.00
2022-09-09T11:07:59.704Z,1096.88
2022-09-09T11:08:59.734Z,4674.38
2022-09-09T11:09:59.763Z,4258.12
2022-09-09T11:11:00.741Z,4460.62
2022-09-09T11:11:59.763Z,1080.00
2022-09-09T11:12:59.771Z,4314.38
2022-09-09T11:13:59.781Z,4522.50
2022-09-09T11:14:59.774Z,4702.50
2022-09-09T11:15:59.775Z,4494.38
2022-09-09T11:16:59.834Z,4516.88
2022-09-09T11:17:59.704Z,4573.12
2022-09-09T11:18:59.708Z,4741.88
2022-09-09T11:20:00.569Z,4522.50
2022-09-09T11:21:01.109Z,4505.62
2022-09-09T11:21:59.557Z,4528.12
2022-09-09T11:22:59.557Z,1198.12
2022-09-09T11:23:59.573Z,2086.88
2022-09-09T11:25:06.545Z,4663.12
2022-09-09T11:25:59.576Z,1136.25
2022-09-09T11:26:59.462Z,4044.38
2022-09-09T11:28:00.256Z,4505.62
2022-09-09T11:29:04.108Z,489.38
2022-09-09T11:30:00.428Z,534.38
2022-09-09T11:30:59.467Z,624.38
2022-09-09T11:31:59.395Z,4545.00
2022-09-09T11:32:59.429Z,922.50
2022-09-09T11:33:59.498Z,3346.88
2022-09-09T11:34:59.406Z,815.62
2022-09-09T11:36:01.210Z,568.12
2022-09-09T11:36:59.407Z,601.88
2022-09-09T11:37:59.440Z,731.25
2022-09-09T11:38:59.470Z,641.25
2022-09-09T11:39:59.547Z,652.50
2022-09-09T11:40:59.515Z,3256.88
2022-09-09T11:41:59.557Z,4320.00
2022-09-09T11:42:59.599Z,4348.12
2022-09-09T11:43:59.653Z,4201.88
2022-09-09T11:44:59.688Z,4280.62
2022-09-09T11:46:01.137Z,4291.88
2022-09-09T11:46:59.796Z,3144.38
2022-09-09T11:47:59.820Z,4190.62
2022-09-09T11:48:59.864Z,4201.88
2022-09-09T11:49:59.773Z,4241.25
2022-09-09T11:50:59.799Z,2660.62
2022-09-09T11:51:59.827Z,3532.50
2022-09-09T11:52:59.854Z,4201.88
2022-09-09T11:53:59.858Z,4320.00
2022-09-09T11:54:59.865Z,4320.00
2022-09-09T11:55:59.899Z,4320.00
2022-09-09T11:56:59.893Z,4258.12
2022-09-09T11:57:59.918Z,4359.38
2022-09-09T11:58:59.908Z,4218.75
2022-09-09T11:59:59.917Z,4083.75
2022-09-09T12:00:59.928Z,4066.88
2022-09-09T12:01:59.971Z,4066.88
2022-09-09T12:02:59.847Z,4224.38
2022-09-09T12:03:59.887Z,3566.25
2022-09-09T12:04:59.821Z,4398.75
2022-09-09T12:05:59.789Z,731.25
2022-09-09T12:06:59.790Z,4246.88
2022-09-09T12:07:59.789Z,3436.88
2022-09-09T12:08:59.801Z,793.12
2022-09-09T12:09:59.821Z,4241.25
2022-09-09T12:10:59.854Z,596.25
2022-09-09T12:11:59.860Z,3211.88
2022-09-09T12:12:59.860Z,4156.88
2022-09-09T12:13:59.880Z,4140.00
2022-09-09T12:14:59.909Z,4021.88
2022-09-09T12:15:59.953Z,3622.50
2022-09-09T12:17:00.015Z,3920.62
2022-09-09T12:18:03.083Z,3825.00
2022-09-09T12:18:59.923Z,1316.25
2022-09-09T12:19:59.925Z,573.75
2022-09-09T12:20:59.934Z,832.50
2022-09-09T12:21:59.941Z,2154.38
2022-09-09T12:22:59.950Z,2565.00
2022-09-09T12:24:00.281Z,2345.62
2022-09-09T12:24:59.962Z,2154.38
2022-09-09T12:25:59.990Z,1923.75
2022-09-09T12:27:00.004Z,1805.62
2022-09-09T12:28:00.025Z,1687.50
2022-09-09T12:29:00.064Z,1479.38
2022-09-09T12:30:00.117Z,1389.38
2022-09-09T12:31:00.202Z,1327.50
2022-09-09T12:32:00.135Z,1361.25
2022-09-09T12:33:00.167Z,1428.75
2022-09-09T12:34:00.210Z,1198.12
2022-09-09T12:35:00.239Z,1068.75
2022-09-09T12:36:00.287Z,1074.38
2022-09-09T12:37:00.342Z,1046.25
2022-09-09T12:38:00.364Z,1080.00
2022-09-09T12:39:00.405Z,984.38
2022-09-09T12:40:00.513Z,916.88
2022-09-09T12:41:00.475Z,849.38
2022-09-09T12:42:00.525Z,826.88
2022-09-09T12:43:00.577Z,776.25
2022-09-09T12:44:00.691Z,753.75
2022-09-09T12:45:00.668Z,669.38
2022-09-09T12:46:00.710Z,630.00